^^
Station Historical Data
Daily Summary for June 18, 2017 Units:  Both    English   Metric
« Previous Day
Next Day »
Daily Weekly Monthly Yearly Custom
  High: Low: Average:
Temperature: 70.2 °F /  21.2 °C 45.9 °F /  7.7 °C 58.7 °F /  14.8 °C
Dew Point: 43.9 °F /  6.6 °C 30.4 °F /  -0.9 °C 37.2 °F /  2.9 °C
Humidity: 68% 30% 46%
Wind Speed: 11.0mph /  17.7km/h - 0.6mph /  1km/h
Wind Gust: 11.0mph /  17.7km/h - -
Wind- - SW
Pressure: 30.32 in /  1026.6 hPa 30.21 in /  1022.9 hPa -
Precipitation: 0.00 in /  0 mm    
Historical Graphs
 
 
Tabular Data for June 18, 2017
Time Temperature Dew Point Pressure Wind Wind Speed Wind Gust Humidity Rainfall Rate (Hourly) solar Conditions
00:05 50.4 °F /  10.2 °C 30.4 °F /  -0.9 °C 30.26in /  1024.6hPa Calm     46% 0.00in /  0mm 0.0 W/m2
00:11 50.2 °F /  10.1 °C 30.7 °F /  -0.7 °C 30.26in /  1024.6hPa Calm   5.0mph /  8km/h 47% 0.00in /  0mm 0.0 W/m2
00:18 50.2 °F /  10.1 °C 30.7 °F /  -0.7 °C 30.26in /  1024.6hPa Calm   2.0mph /  3.2km/h 47% 0.00in /  0mm 0.0 W/m2
00:24 50.0 °F /  10 °C 30.6 °F /  -0.8 °C 30.26in /  1024.6hPa Calm   2.0mph /  3.2km/h 47% 0.00in /  0mm 0.0 W/m2
00:30 50.0 °F /  10 °C 30.6 °F /  -0.8 °C 30.26in /  1024.6hPa Calm   1.0mph /  1.6km/h 47% 0.00in /  0mm 0.0 W/m2
00:36 50.0 °F /  10 °C 30.6 °F /  -0.8 °C 30.26in /  1024.6hPa Calm     47% 0.00in /  0mm 0.0 W/m2
00:42 50.2 °F /  10.1 °C 30.7 °F /  -0.7 °C 30.26in /  1024.6hPa Calm     47% 0.00in /  0mm 0.0 W/m2
00:48 50.2 °F /  10.1 °C 30.7 °F /  -0.7 °C 30.25in /  1024.3hPa Calm     47% 0.00in /  0mm 0.0 W/m2
00:54 50.0 °F /  10 °C 30.6 °F /  -0.8 °C 30.26in /  1024.6hPa Calm     47% 0.00in /  0mm 0.0 W/m2
01:01 49.8 °F /  9.9 °C 30.9 °F /  -0.6 °C 30.25in /  1024.3hPa Calm     48% 0.00in /  0mm 0.0 W/m2
01:07 49.6 °F /  9.8 °C 30.7 °F /  -0.7 °C 30.25in /  1024.3hPa Calm     48% 0.00in /  0mm 0.0 W/m2
01:13 49.6 °F /  9.8 °C 31.3 °F /  -0.4 °C 30.25in /  1024.3hPa Calm     49% 0.00in /  0mm 0.0 W/m2
01:19 49.5 °F /  9.7 °C 31.1 °F /  -0.5 °C 30.25in /  1024.3hPa Calm     49% 0.00in /  0mm 0.0 W/m2
01:25 49.3 °F /  9.6 °C 30.9 °F /  -0.6 °C 30.25in /  1024.3hPa Calm     49% 0.00in /  0mm 0.0 W/m2
01:31 49.1 °F /  9.5 °C 31.3 °F /  -0.4 °C 30.24in /  1023.9hPa Calm     50% 0.00in /  0mm 0.0 W/m2
01:37 48.9 °F /  9.4 °C 31.1 °F /  -0.5 °C 30.24in /  1023.9hPa Calm     50% 0.00in /  0mm 0.0 W/m2
01:44 48.9 °F /  9.4 °C 31.1 °F /  -0.5 °C 30.24in /  1023.9hPa Calm     50% 0.00in /  0mm 0.0 W/m2
01:50 48.7 °F /  9.3 °C 30.9 °F /  -0.6 °C 30.24in /  1023.9hPa Calm     50% 0.00in /  0mm 0.0 W/m2
01:56 48.6 °F /  9.2 °C 31.3 °F /  -0.4 °C 30.24in /  1023.9hPa Calm     51% 0.00in /  0mm 0.0 W/m2
02:02 48.6 °F /  9.2 °C 31.3 °F /  -0.4 °C 30.24in /  1023.9hPa Calm     51% 0.00in /  0mm 0.0 W/m2
02:08 48.6 °F /  9.2 °C 31.8 °F /  -0.1 °C 30.24in /  1023.9hPa NE 2.0mph /  3.2km/h 3.0mph /  4.8km/h 52% 0.00in /  0mm 0.0 W/m2
02:14 48.9 °F /  9.4 °C 31.6 °F /  -0.2 °C 30.24in /  1023.9hPa Calm     51% 0.00in /  0mm 0.0 W/m2
02:20 49.3 °F /  9.6 °C 32.4 °F /  0.2 °C 30.24in /  1023.9hPa Calm     52% 0.00in /  0mm 0.0 W/m2
02:27 49.5 °F /  9.7 °C 32.0 °F /  0 °C 30.24in /  1023.9hPa Calm   1.0mph /  1.6km/h 51% 0.00in /  0mm 0.0 W/m2
02:33 49.5 °F /  9.7 °C 32.0 °F /  0 °C 30.24in /  1023.9hPa Calm     51% 0.00in /  0mm 0.0 W/m2
02:39 49.5 °F /  9.7 °C 32.0 °F /  0 °C 30.24in /  1023.9hPa Calm     51% 0.00in /  0mm 0.0 W/m2
02:45 49.3 °F /  9.6 °C 32.0 °F /  0 °C 30.24in /  1023.9hPa Calm     51% 0.00in /  0mm 0.0 W/m2
02:51 49.1 °F /  9.5 °C 32.2 °F /  0.1 °C 30.24in /  1023.9hPa Calm     52% 0.00in /  0mm 0.0 W/m2
02:57 48.9 °F /  9.4 °C 32.0 °F /  0 °C 30.24in /  1023.9hPa Calm     52% 0.00in /  0mm 0.0 W/m2
03:03 48.7 °F /  9.3 °C 32.4 °F /  0.2 °C 30.24in /  1023.9hPa Calm     53% 0.00in /  0mm 0.0 W/m2
03:10 48.6 °F /  9.2 °C 32.7 °F /  0.4 °C 30.24in /  1023.9hPa Calm     54% 0.00in /  0mm 0.0 W/m2
03:16 48.2 °F /  9 °C 32.4 °F /  0.2 °C 30.24in /  1023.9hPa Calm     54% 0.00in /  0mm 0.0 W/m2
03:22 47.8 °F /  8.8 °C 32.5 °F /  0.3 °C 30.24in /  1023.9hPa Calm     55% 0.00in /  0mm 0.0 W/m2
03:28 47.7 °F /  8.7 °C 32.7 °F /  0.4 °C 30.24in /  1023.9hPa Calm     56% 0.00in /  0mm 0.0 W/m2
03:34 47.5 °F /  8.6 °C 33.1 °F /  0.6 °C 30.24in /  1023.9hPa Calm     57% 0.00in /  0mm 0.0 W/m2
03:40 47.1 °F /  8.4 °C 33.1 °F /  0.6 °C 30.24in /  1023.9hPa Calm     58% 0.00in /  0mm 0.0 W/m2
03:46 47.1 °F /  8.4 °C 33.4 °F /  0.8 °C 30.24in /  1023.9hPa Calm     59% 0.00in /  0mm 0.0 W/m2
03:53 47.1 °F /  8.4 °C 34.0 °F /  1.1 °C 30.24in /  1023.9hPa Calm     60% 0.00in /  0mm 0.0 W/m2
03:59 47.1 °F /  8.4 °C 34.3 °F /  1.3 °C 30.24in /  1023.9hPa Calm     61% 0.00in /  0mm 0.0 W/m2
04:05 47.1 °F /  8.4 °C 34.3 °F /  1.3 °C 30.24in /  1023.9hPa Calm     61% 0.00in /  0mm 0.0 W/m2
04:11 46.9 °F /  8.3 °C 34.5 °F /  1.4 °C 30.24in /  1023.9hPa Calm     62% 0.00in /  0mm 0.0 W/m2
04:17 46.9 °F /  8.3 °C 35.1 °F /  1.7 °C 30.24in /  1023.9hPa Calm     63% 0.00in /  0mm 0.0 W/m2
04:23 46.8 °F /  8.2 °C 34.9 °F /  1.6 °C 30.24in /  1023.9hPa Calm     63% 0.00in /  0mm 0.0 W/m2
04:30 46.8 °F /  8.2 °C 35.2 °F /  1.8 °C 30.24in /  1023.9hPa Calm     64% 0.00in /  0mm 0.0 W/m2
04:36 46.8 °F /  8.2 °C 35.2 °F /  1.8 °C 30.25in /  1024.3hPa Calm     64% 0.00in /  0mm 0.0 W/m2
04:42 46.8 °F /  8.2 °C 35.2 °F /  1.8 °C 30.25in /  1024.3hPa Calm     64% 0.00in /  0mm 0.0 W/m2
04:48 46.8 °F /  8.2 °C 35.6 °F /  2 °C 30.25in /  1024.3hPa Calm     65% 0.00in /  0mm 0.0 W/m2
04:54 46.8 °F /  8.2 °C 35.6 °F /  2 °C 30.25in /  1024.3hPa Calm     65% 0.00in /  0mm 0.0 W/m2
05:00 46.8 °F /  8.2 °C 35.6 °F /  2 °C 30.25in /  1024.3hPa Calm     65% 0.00in /  0mm 0.0 W/m2
05:06 46.6 °F /  8.1 °C 35.4 °F /  1.9 °C 30.25in /  1024.3hPa Calm     65% 0.00in /  0mm 0.0 W/m2
05:13 46.6 °F /  8.1 °C 35.4 °F /  1.9 °C 30.26in /  1024.6hPa Calm     65% 0.00in /  0mm 0.0 W/m2
05:19 46.4 °F /  8 °C 35.2 °F /  1.8 °C 30.26in /  1024.6hPa Calm     65% 0.00in /  0mm 0.0 W/m2
05:25 46.2 °F /  7.9 °C 35.4 °F /  1.9 °C 30.26in /  1024.6hPa Calm     66% 0.00in /  0mm 0.0 W/m2
05:31 46.2 °F /  7.9 °C 35.4 °F /  1.9 °C 30.26in /  1024.6hPa Calm     66% 0.00in /  0mm 0.0 W/m2
05:37 46.2 °F /  7.9 °C 35.4 °F /  1.9 °C 30.26in /  1024.6hPa Calm     66% 0.00in /  0mm 0.0 W/m2
05:43 46.2 °F /  7.9 °C 35.4 °F /  1.9 °C 30.26in /  1024.6hPa Calm     66% 0.00in /  0mm 0.0 W/m2
05:49 46.2 °F /  7.9 °C 35.4 °F /  1.9 °C 30.26in /  1024.6hPa Calm     66% 0.00in /  0mm 0.0 W/m2
05:55 46.2 °F /  7.9 °C 35.4 °F /  1.9 °C 30.26in /  1024.6hPa Calm     66% 0.00in /  0mm 0.0 W/m2
06:02 46.0 °F /  7.8 °C 35.8 °F /  2.1 °C 30.27in /  1024.9hPa Calm     67% 0.00in /  0mm 0.0 W/m2
06:08 46.0 °F /  7.8 °C 35.8 °F /  2.1 °C 30.27in /  1024.9hPa Calm     67% 0.00in /  0mm 0.0 W/m2
06:14 45.9 °F /  7.7 °C 36.0 °F /  2.2 °C 30.27in /  1024.9hPa Calm     68% 0.00in /  0mm 0.0 W/m2
06:20 46.0 °F /  7.8 °C 35.8 °F /  2.1 °C 30.28in /  1025.3hPa Calm     67% 0.00in /  0mm 0.0 W/m2
06:26 46.2 °F /  7.9 °C 36.0 °F /  2.2 °C 30.28in /  1025.3hPa Calm     67% 0.00in /  0mm 0.0 W/m2
06:32 46.6 °F /  8.1 °C 36.1 °F /  2.3 °C 30.28in /  1025.3hPa Calm     67% 0.00in /  0mm 0.0 W/m2
06:38 46.8 °F /  8.2 °C 36.0 °F /  2.2 °C 30.29in /  1025.6hPa Calm     66% 0.00in /  0mm 7.0 W/m2
06:45 46.8 °F /  8.2 °C 36.0 °F /  2.2 °C 30.29in /  1025.6hPa Calm     66% 0.00in /  0mm 12.0 W/m2
06:51 46.8 °F /  8.2 °C 36.3 °F /  2.4 °C 30.29in /  1025.6hPa Calm     67% 0.00in /  0mm 18.0 W/m2
06:57 46.8 °F /  8.2 °C 36.7 °F /  2.6 °C 30.29in /  1025.6hPa Calm     68% 0.00in /  0mm 28.0 W/m2
07:03 46.8 °F /  8.2 °C 36.7 °F /  2.6 °C 30.29in /  1025.6hPa Calm     68% 0.00in /  0mm 37.0 W/m2
07:09 46.9 °F /  8.3 °C 36.9 °F /  2.7 °C 30.30in /  1026hPa Calm     68% 0.00in /  0mm 46.0 W/m2
07:15 47.3 °F /  8.5 °C 37.2 °F /  2.9 °C 30.30in /  1026hPa Calm     68% 0.00in /  0mm 51.0 W/m2
07:22 47.7 °F /  8.7 °C 37.6 °F /  3.1 °C 30.30in /  1026hPa Calm     68% 0.00in /  0mm 58.0 W/m2
07:28 48.0 °F /  8.9 °C 37.9 °F /  3.3 °C 30.30in /  1026hPa Calm     68% 0.00in /  0mm 69.0 W/m2
07:34 48.9 °F /  9.4 °C 38.5 °F /  3.6 °C 30.30in /  1026hPa Calm     67% 0.00in /  0mm 77.0 W/m2
07:40 49.6 °F /  9.8 °C 38.3 °F /  3.5 °C 30.31in /  1026.3hPa Calm     65% 0.00in /  0mm 90.0 W/m2
07:46 50.5 °F /  10.3 °C 38.5 °F /  3.6 °C 30.31in /  1026.3hPa Calm     63% 0.00in /  0mm 88.0 W/m2
07:52 51.6 °F /  10.9 °C 38.7 °F /  3.7 °C 30.31in /  1026.3hPa Calm     61% 0.00in /  0mm 98.0 W/m2
07:58 52.9 °F /  11.6 °C 38.5 °F /  3.6 °C 30.31in /  1026.3hPa Calm   1.0mph /  1.6km/h 58% 0.00in /  0mm 105.0 W/m2
08:04 54.0 °F /  12.2 °C 38.7 °F /  3.7 °C 30.32in /  1026.6hPa Calm     56% 0.00in /  0mm 127.0 W/m2
08:11 54.7 °F /  12.6 °C 39.4 °F /  4.1 °C 30.32in /  1026.6hPa Calm     56% 0.00in /  0mm 132.0 W/m2
08:17 55.6 °F /  13.1 °C 39.2 °F /  4 °C 30.32in /  1026.6hPa Calm   1.0mph /  1.6km/h 54% 0.00in /  0mm 135.0 W/m2
08:23 56.1 °F /  13.4 °C 39.7 °F /  4.3 °C 30.32in /  1026.6hPa Calm     54% 0.00in /  0mm 149.0 W/m2
08:29 56.8 °F /  13.8 °C 39.4 °F /  4.1 °C 30.32in /  1026.6hPa Calm     52% 0.00in /  0mm 169.0 W/m2
08:35 57.6 °F /  14.2 °C 39.6 °F /  4.2 °C 30.32in /  1026.6hPa Calm     51% 0.00in /  0mm 160.0 W/m2
08:41 58.3 °F /  14.6 °C 38.7 °F /  3.7 °C 30.32in /  1026.6hPa Calm     48% 0.00in /  0mm 155.0 W/m2
08:48 58.8 °F /  14.9 °C 39.2 °F /  4 °C 30.32in /  1026.6hPa Calm     48% 0.00in /  0mm 174.0 W/m2
08:54 59.4 °F /  15.2 °C 39.2 °F /  4 °C 30.32in /  1026.6hPa Calm     47% 0.00in /  0mm 178.0 W/m2
09:00 60.1 °F /  15.6 °C 41.4 °F /  5.2 °C 30.32in /  1026.6hPa Calm     50% 0.00in /  0mm 183.0 W/m2
09:06 60.4 °F /  15.8 °C 40.6 °F /  4.8 °C 30.32in /  1026.6hPa Calm   1.0mph /  1.6km/h 48% 0.00in /  0mm 200.0 W/m2
09:12 61.0 °F /  16.1 °C 39.6 °F /  4.2 °C 30.31in /  1026.3hPa Calm     45% 0.00in /  0mm 218.0 W/m2
09:18 61.3 °F /  16.3 °C 41.5 °F /  5.3 °C 30.32in /  1026.6hPa Calm     48% 0.00in /  0mm 229.0 W/m2
09:24 61.9 °F /  16.6 °C 39.7 °F /  4.3 °C 30.32in /  1026.6hPa Calm   1.0mph /  1.6km/h 44% 0.00in /  0mm 236.0 W/m2
09:30 62.1 °F /  16.7 °C 39.9 °F /  4.4 °C 30.32in /  1026.6hPa Calm   1.0mph /  1.6km/h 44% 0.00in /  0mm 244.0 W/m2
09:36 62.2 °F /  16.8 °C 40.1 °F /  4.5 °C 30.32in /  1026.6hPa Calm   1.0mph /  1.6km/h 44% 0.00in /  0mm 243.0 W/m2
09:43 62.6 °F /  17 °C 39.7 °F /  4.3 °C 30.32in /  1026.6hPa Calm     43% 0.00in /  0mm 278.0 W/m2
09:49 63.0 °F /  17.2 °C 40.1 °F /  4.5 °C 30.32in /  1026.6hPa Calm   2.0mph /  3.2km/h 43% 0.00in /  0mm 260.0 W/m2
09:55 63.1 °F /  17.3 °C 40.8 °F /  4.9 °C 30.31in /  1026.3hPa Calm     44% 0.00in /  0mm 295.0 W/m2
10:01 63.5 °F /  17.5 °C 41.2 °F /  5.1 °C 30.31in /  1026.3hPa Calm   1.0mph /  1.6km/h 44% 0.00in /  0mm 294.0 W/m2
10:07 64.0 °F /  17.8 °C 41.7 °F /  5.4 °C 30.31in /  1026.3hPa NW 0.9mph /  1.4km/h 2.0mph /  3.2km/h 44% 0.00in /  0mm 394.0 W/m2
10:13 64.6 °F /  18.1 °C 42.3 °F /  5.7 °C 30.31in /  1026.3hPa NNW 2.0mph /  3.2km/h 3.0mph /  4.8km/h 44% 0.00in /  0mm 343.0 W/m2
10:19 65.1 °F /  18.4 °C 42.1 °F /  5.6 °C 30.30in /  1026hPa NNW 4.0mph /  6.4km/h 4.0mph /  6.4km/h 43% 0.00in /  0mm 352.0 W/m2
10:25 65.8 °F /  18.8 °C 42.8 °F /  6 °C 30.30in /  1026hPa NNW 2.0mph /  3.2km/h 6.0mph /  9.7km/h 43% 0.00in /  0mm 360.0 W/m2
10:31 66.7 °F /  19.3 °C 43.0 °F /  6.1 °C 30.30in /  1026hPa Calm   1.0mph /  1.6km/h 42% 0.00in /  0mm 842.0 W/m2
10:37 67.8 °F /  19.9 °C 43.9 °F /  6.6 °C 30.30in /  1026hPa Calm   2.0mph /  3.2km/h 42% 0.00in /  0mm 373.0 W/m2
10:44 68.2 °F /  20.1 °C 43.5 °F /  6.4 °C 30.30in /  1026hPa ENE 2.0mph /  3.2km/h 2.0mph /  3.2km/h 41% 0.00in /  0mm 471.0 W/m2
10:50 68.4 °F /  20.2 °C 43.2 °F /  6.2 °C 30.29in /  1025.6hPa NNW 0.9mph /  1.4km/h 4.0mph /  6.4km/h 40% 0.00in /  0mm 345.0 W/m2
10:56 68.5 °F /  20.3 °C 43.3 °F /  6.3 °C 30.29in /  1025.6hPa NNW 11.0mph /  17.7km/h 11.0mph /  17.7km/h 40% 0.00in /  0mm 295.0 W/m2
11:02 68.5 °F /  20.3 °C 42.6 °F /  5.9 °C 30.29in /  1025.6hPa North 4.0mph /  6.4km/h 7.0mph /  11.3km/h 39% 0.00in /  0mm 383.0 W/m2
11:08 68.5 °F /  20.3 °C 42.6 °F /  5.9 °C 30.29in /  1025.6hPa North 4.0mph /  6.4km/h 11.0mph /  17.7km/h 39% 0.00in /  0mm 399.0 W/m2
11:14 68.5 °F /  20.3 °C 42.6 °F /  5.9 °C 30.29in /  1025.6hPa NNW 2.0mph /  3.2km/h 7.0mph /  11.3km/h 39% 0.00in /  0mm 374.0 W/m2
11:20 68.7 °F /  20.4 °C 42.1 °F /  5.6 °C 30.28in /  1025.3hPa NNE 0.9mph /  1.4km/h 7.0mph /  11.3km/h 38% 0.00in /  0mm 399.0 W/m2
11:26 69.1 °F /  20.6 °C 42.4 °F /  5.8 °C 30.28in /  1025.3hPa NW 2.9mph /  4.7km/h 5.0mph /  8km/h 38% 0.00in /  0mm 555.0 W/m2
11:32 69.1 °F /  20.6 °C 42.4 °F /  5.8 °C 30.28in /  1025.3hPa NNE 0.9mph /  1.4km/h 3.0mph /  4.8km/h 38% 0.00in /  0mm 369.0 W/m2
11:38 69.1 °F /  20.6 °C 41.7 °F /  5.4 °C 30.28in /  1025.3hPa NNW 2.9mph /  4.7km/h 9.0mph /  14.5km/h 37% 0.00in /  0mm 350.0 W/m2
11:44 68.9 °F /  20.5 °C 41.5 °F /  5.3 °C 30.27in /  1024.9hPa NNW 4.0mph /  6.4km/h 5.0mph /  8km/h 37% 0.00in /  0mm 348.0 W/m2
11:50 68.9 °F /  20.5 °C 42.3 °F /  5.7 °C 30.27in /  1024.9hPa NNW 2.9mph /  4.7km/h 5.0mph /  8km/h 38% 0.00in /  0mm 322.0 W/m2
11:56 68.7 °F /  20.4 °C 42.1 °F /  5.6 °C 30.27in /  1024.9hPa NNW 4.0mph /  6.4km/h 7.0mph /  11.3km/h 38% 0.00in /  0mm 322.0 W/m2
12:02 68.7 °F /  20.4 °C 43.3 °F /  6.3 °C 30.26in /  1024.6hPa Calm   4.0mph /  6.4km/h 40% 0.00in /  0mm 350.0 W/m2
12:08 68.9 °F /  20.5 °C 42.3 °F /  5.7 °C 30.26in /  1024.6hPa Calm   8.0mph /  12.9km/h 38% 0.00in /  0mm 417.0 W/m2
12:14 69.3 °F /  20.7 °C 41.9 °F /  5.5 °C 30.26in /  1024.6hPa NNW 2.0mph /  3.2km/h 8.0mph /  12.9km/h 37% 0.00in /  0mm 378.0 W/m2
12:20 69.3 °F /  20.7 °C 41.2 °F /  5.1 °C 30.26in /  1024.6hPa North 2.9mph /  4.7km/h 9.0mph /  14.5km/h 36% 0.00in /  0mm 381.0 W/m2
12:26 69.4 °F /  20.8 °C 42.1 °F /  5.6 °C 30.25in /  1024.3hPa Calm   4.0mph /  6.4km/h 37% 0.00in /  0mm 345.0 W/m2
12:32 69.4 °F /  20.8 °C 42.1 °F /  5.6 °C 30.25in /  1024.3hPa Calm   4.0mph /  6.4km/h 37% 0.00in /  0mm 339.0 W/m2
12:38 69.4 °F /  20.8 °C 40.6 °F /  4.8 °C 30.24in /  1023.9hPa NNW 4.0mph /  6.4km/h 4.0mph /  6.4km/h 35% 0.00in /  0mm 339.0 W/m2
12:44 69.6 °F /  20.9 °C 41.5 °F /  5.3 °C 30.24in /  1023.9hPa NNE 2.9mph /  4.7km/h 7.0mph /  11.3km/h 36% 0.00in /  0mm 364.0 W/m2
12:50 69.6 °F /  20.9 °C 41.5 °F /  5.3 °C 30.24in /  1023.9hPa North 2.0mph /  3.2km/h 5.0mph /  8km/h 36% 0.00in /  0mm 350.0 W/m2
12:56 69.8 °F /  21 °C 40.1 °F /  4.5 °C 30.24in /  1023.9hPa NW 8.1mph /  13km/h 8.1mph /  13km/h 34% 0.00in /  0mm 332.0 W/m2
13:02 69.6 °F /  20.9 °C 39.9 °F /  4.4 °C 30.24in /  1023.9hPa Calm   7.0mph /  11.3km/h 34% 0.00in /  0mm 330.0 W/m2
13:08 69.6 °F /  20.9 °C 40.8 °F /  4.9 °C 30.24in /  1023.9hPa North 2.0mph /  3.2km/h 4.0mph /  6.4km/h 35% 0.00in /  0mm 443.0 W/m2
13:14 69.6 °F /  20.9 °C 39.9 °F /  4.4 °C 30.24in /  1023.9hPa ENE 4.0mph /  6.4km/h 7.0mph /  11.3km/h 34% 0.00in /  0mm 302.0 W/m2
13:20 69.6 °F /  20.9 °C 38.5 °F /  3.6 °C 30.23in /  1023.6hPa North 2.0mph /  3.2km/h 3.0mph /  4.8km/h 32% 0.00in /  0mm 255.0 W/m2
13:26 69.6 °F /  20.9 °C 38.5 °F /  3.6 °C 30.23in /  1023.6hPa North 2.9mph /  4.7km/h 7.0mph /  11.3km/h 32% 0.00in /  0mm 229.0 W/m2
13:32 69.4 °F /  20.8 °C 39.0 °F /  3.9 °C 30.23in /  1023.6hPa NNW 2.0mph /  3.2km/h 4.0mph /  6.4km/h 33% 0.00in /  0mm 200.0 W/m2
13:38 69.3 °F /  20.7 °C 37.4 °F /  3 °C 30.23in /  1023.6hPa North 0.9mph /  1.4km/h 5.0mph /  8km/h 31% 0.00in /  0mm 183.0 W/m2
13:44 69.1 °F /  20.6 °C 37.9 °F /  3.3 °C 30.23in /  1023.6hPa NE 0.9mph /  1.4km/h 2.0mph /  3.2km/h 32% 0.00in /  0mm 176.0 W/m2
13:50 69.1 °F /  20.6 °C 37.9 °F /  3.3 °C 30.23in /  1023.6hPa Calm   3.0mph /  4.8km/h 32% 0.00in /  0mm 179.0 W/m2
13:56 69.1 °F /  20.6 °C 37.2 °F /  2.9 °C 30.23in /  1023.6hPa Calm   5.0mph /  8km/h 31% 0.00in /  0mm 192.0 W/m2
14:02 69.1 °F /  20.6 °C 37.2 °F /  2.9 °C 30.22in /  1023.2hPa Calm   2.0mph /  3.2km/h 31% 0.00in /  0mm 243.0 W/m2
14:08 69.3 °F /  20.7 °C 38.1 °F /  3.4 °C 30.22in /  1023.2hPa NW 0.9mph /  1.4km/h 5.0mph /  8km/h 32% 0.00in /  0mm 279.0 W/m2
14:14 69.4 °F /  20.8 °C 38.3 °F /  3.5 °C 30.22in /  1023.2hPa NNW 2.9mph /  4.7km/h 7.0mph /  11.3km/h 32% 0.00in /  0mm 299.0 W/m2
14:20 69.4 °F /  20.8 °C 38.3 °F /  3.5 °C 30.22in /  1023.2hPa North 4.0mph /  6.4km/h 6.0mph /  9.7km/h 32% 0.00in /  0mm 274.0 W/m2
14:26 69.6 °F /  20.9 °C 37.6 °F /  3.1 °C 30.22in /  1023.2hPa NW 4.0mph /  6.4km/h 4.0mph /  6.4km/h 31% 0.00in /  0mm 274.0 W/m2
14:32 70.0 °F /  21.1 °C 38.8 °F /  3.8 °C 30.22in /  1023.2hPa Calm   2.0mph /  3.2km/h 32% 0.00in /  0mm 313.0 W/m2
14:38 70.2 °F /  21.2 °C 37.2 °F /  2.9 °C 30.22in /  1023.2hPa NE 6.0mph /  9.7km/h 7.0mph /  11.3km/h 30% 0.00in /  0mm 229.0 W/m2
14:44 70.2 °F /  21.2 °C 38.1 °F /  3.4 °C 30.22in /  1023.2hPa Calm   7.0mph /  11.3km/h 31% 0.00in /  0mm 230.0 W/m2
14:50 70.2 °F /  21.2 °C 37.2 °F /  2.9 °C 30.22in /  1023.2hPa Calm   6.0mph /  9.7km/h 30% 0.00in /  0mm 209.0 W/m2
14:56 70.0 °F /  21.1 °C 37.0 °F /  2.8 °C 30.21in /  1022.9hPa NNE 4.0mph /  6.4km/h 4.0mph /  6.4km/h 30% 0.00in /  0mm 199.0 W/m2
15:02 70.0 °F /  21.1 °C 37.0 °F /  2.8 °C 30.22in /  1023.2hPa NNW 0.9mph /  1.4km/h 6.0mph /  9.7km/h 30% 0.00in /  0mm 213.0 W/m2
15:08 69.6 °F /  20.9 °C 36.9 °F /  2.7 °C 30.22in /  1023.2hPa North 2.0mph /  3.2km/h 7.0mph /  11.3km/h 30% 0.00in /  0mm 225.0 W/m2
15:14 69.6 °F /  20.9 °C 36.9 °F /  2.7 °C 30.22in /  1023.2hPa NNE 2.0mph /  3.2km/h 6.0mph /  9.7km/h 30% 0.00in /  0mm 206.0 W/m2
15:20 69.4 °F /  20.8 °C 37.4 °F /  3 °C 30.22in /  1023.2hPa Calm   3.0mph /  4.8km/h 31% 0.00in /  0mm 188.0 W/m2
15:26 69.4 °F /  20.8 °C 37.4 °F /  3 °C 30.22in /  1023.2hPa NNW 0.9mph /  1.4km/h 4.0mph /  6.4km/h 31% 0.00in /  0mm 171.0 W/m2
15:32 69.4 °F /  20.8 °C 37.4 °F /  3 °C 30.22in /  1023.2hPa Calm   1.0mph /  1.6km/h 31% 0.00in /  0mm 142.0 W/m2
15:38 69.4 °F /  20.8 °C 36.7 °F /  2.6 °C 30.22in /  1023.2hPa Calm   2.0mph /  3.2km/h 30% 0.00in /  0mm 121.0 W/m2
15:44 69.3 °F /  20.7 °C 37.4 °F /  3 °C 30.22in /  1023.2hPa Calm   1.0mph /  1.6km/h 31% 0.00in /  0mm 116.0 W/m2
15:50 69.1 °F /  20.6 °C 37.2 °F /  2.9 °C 30.22in /  1023.2hPa NNW 2.0mph /  3.2km/h 8.0mph /  12.9km/h 31% 0.00in /  0mm 107.0 W/m2
15:56 68.7 °F /  20.4 °C 36.9 °F /  2.7 °C 30.23in /  1023.6hPa Calm   4.0mph /  6.4km/h 31% 0.00in /  0mm 102.0 W/m2
16:04 68.5 °F /  20.3 °C 37.6 °F /  3.1 °C 30.23in /  1023.6hPa Calm   3.0mph /  4.8km/h 32% 0.00in /  0mm 88.0 W/m2
16:10 68.4 °F /  20.2 °C 37.4 °F /  3 °C 30.23in /  1023.6hPa NNE 2.9mph /  4.7km/h 4.0mph /  6.4km/h 32% 0.00in /  0mm 76.0 W/m2
16:17 68.2 °F /  20.1 °C 37.2 °F /  2.9 °C 30.23in /  1023.6hPa NNE 2.9mph /  4.7km/h 4.0mph /  6.4km/h 32% 0.00in /  0mm 63.0 W/m2
16:24 68.0 °F /  20 °C 37.0 °F /  2.8 °C 30.23in /  1023.6hPa Calm   2.0mph /  3.2km/h 32% 0.00in /  0mm 49.0 W/m2
16:30 67.8 °F /  19.9 °C 36.9 °F /  2.7 °C 30.24in /  1023.9hPa NNW 0.9mph /  1.4km/h 2.0mph /  3.2km/h 32% 0.00in /  0mm 40.0 W/m2
16:36 67.6 °F /  19.8 °C 37.6 °F /  3.1 °C 30.24in /  1023.9hPa Calm   1.0mph /  1.6km/h 33% 0.00in /  0mm 35.0 W/m2
16:42 67.5 °F /  19.7 °C 37.4 °F /  3 °C 30.24in /  1023.9hPa Calm   1.0mph /  1.6km/h 33% 0.00in /  0mm 28.0 W/m2
16:49 67.3 °F /  19.6 °C 37.2 °F /  2.9 °C 30.24in /  1023.9hPa Calm   6.0mph /  9.7km/h 33% 0.00in /  0mm 21.0 W/m2
16:56 67.1 °F /  19.5 °C 37.0 °F /  2.8 °C 30.24in /  1023.9hPa Calm   1.0mph /  1.6km/h 33% 0.00in /  0mm 14.0 W/m2
17:02 66.9 °F /  19.4 °C 37.6 °F /  3.1 °C 30.24in /  1023.9hPa NW 0.9mph /  1.4km/h 1.0mph /  1.6km/h 34% 0.00in /  0mm 9.0 W/m2
17:08 66.7 °F /  19.3 °C 37.4 °F /  3 °C 30.24in /  1023.9hPa Calm   1.0mph /  1.6km/h 34% 0.00in /  0mm 5.0 W/m2
17:14 66.6 °F /  19.2 °C 37.4 °F /  3 °C 30.24in /  1023.9hPa Calm     34% 0.00in /  0mm 0.0 W/m2
17:20 66.2 °F /  19 °C 37.0 °F /  2.8 °C 30.24in /  1023.9hPa Calm     34% 0.00in /  0mm 0.0 W/m2
17:26 65.8 °F /  18.8 °C 37.4 °F /  3 °C 30.24in /  1023.9hPa Calm     35% 0.00in /  0mm 0.0 W/m2
17:32 65.7 °F /  18.7 °C 37.9 °F /  3.3 °C 30.24in /  1023.9hPa Calm     36% 0.00in /  0mm 0.0 W/m2
17:38 65.3 °F /  18.5 °C 38.3 °F /  3.5 °C 30.25in /  1024.3hPa Calm     37% 0.00in /  0mm 0.0 W/m2
17:44 64.8 °F /  18.2 °C 37.9 °F /  3.3 °C 30.25in /  1024.3hPa Calm     37% 0.00in /  0mm 0.0 W/m2
17:50 64.4 °F /  18 °C 38.3 °F /  3.5 °C 30.25in /  1024.3hPa Calm     38% 0.00in /  0mm 0.0 W/m2
17:56 64.0 °F /  17.8 °C 37.9 °F /  3.3 °C 30.25in /  1024.3hPa Calm     38% 0.00in /  0mm 0.0 W/m2
18:04 63.5 °F /  17.5 °C 38.1 °F /  3.4 °C 30.26in /  1024.6hPa Calm     39% 0.00in /  0mm 0.0 W/m2
18:10 63.1 °F /  17.3 °C 38.5 °F /  3.6 °C 30.26in /  1024.6hPa Calm     40% 0.00in /  0mm 0.0 W/m2
18:16 62.8 °F /  17.1 °C 38.1 °F /  3.4 °C 30.26in /  1024.6hPa Calm     40% 0.00in /  0mm 0.0 W/m2
18:23 62.2 °F /  16.8 °C 37.6 °F /  3.1 °C 30.26in /  1024.6hPa Calm     40% 0.00in /  0mm 0.0 W/m2
18:28 62.1 °F /  16.7 °C 38.1 °F /  3.4 °C 30.26in /  1024.6hPa Calm     41% 0.00in /  0mm 0.0 W/m2
18:34 61.9 °F /  16.6 °C 37.9 °F /  3.3 °C 30.26in /  1024.6hPa Calm   1.0mph /  1.6km/h 41% 0.00in /  0mm 0.0 W/m2
18:40 61.5 °F /  16.4 °C 37.6 °F /  3.1 °C 30.26in /  1024.6hPa Calm     41% 0.00in /  0mm 0.0 W/m2
18:46 61.2 °F /  16.2 °C 37.9 °F /  3.3 °C 30.26in /  1024.6hPa Calm     42% 0.00in /  0mm 0.0 W/m2
18:53 60.8 °F /  16 °C 37.6 °F /  3.1 °C 30.27in /  1024.9hPa Calm     42% 0.00in /  0mm 0.0 W/m2
18:58 60.4 °F /  15.8 °C 37.2 °F /  2.9 °C 30.27in /  1024.9hPa Calm     42% 0.00in /  0mm 0.0 W/m2
19:05 60.3 °F /  15.7 °C 37.8 °F /  3.2 °C 30.27in /  1024.9hPa Calm     43% 0.00in /  0mm 0.0 W/m2
19:11 60.1 °F /  15.6 °C 37.6 °F /  3.1 °C 30.27in /  1024.9hPa Calm     43% 0.00in /  0mm 0.0 W/m2
19:17 59.7 °F /  15.4 °C 37.8 °F /  3.2 °C 30.27in /  1024.9hPa Calm     44% 0.00in /  0mm 0.0 W/m2
19:25 59.5 °F /  15.3 °C 37.6 °F /  3.1 °C 30.27in /  1024.9hPa Calm     44% 0.00in /  0mm 0.0 W/m2
19:31 59.4 °F /  15.2 °C 37.4 °F /  3 °C 30.27in /  1024.9hPa Calm     44% 0.00in /  0mm 0.0 W/m2
19:38 59.2 °F /  15.1 °C 37.2 °F /  2.9 °C 30.27in /  1024.9hPa Calm     44% 0.00in /  0mm 0.0 W/m2
19:44 59.2 °F /  15.1 °C 37.2 °F /  2.9 °C 30.28in /  1025.3hPa Calm     44% 0.00in /  0mm 0.0 W/m2
19:50 59.0 °F /  15 °C 37.8 °F /  3.2 °C 30.28in /  1025.3hPa Calm     45% 0.00in /  0mm 0.0 W/m2
19:56 59.0 °F /  15 °C 37.0 °F /  2.8 °C 30.28in /  1025.3hPa Calm   1.0mph /  1.6km/h 44% 0.00in /  0mm 0.0 W/m2
20:02 59.2 °F /  15.1 °C 37.2 °F /  2.9 °C 30.28in /  1025.3hPa Calm   1.0mph /  1.6km/h 44% 0.00in /  0mm 0.0 W/m2
20:08 59.2 °F /  15.1 °C 37.2 °F /  2.9 °C 30.29in /  1025.6hPa Calm     44% 0.00in /  0mm 0.0 W/m2
20:14 59.2 °F /  15.1 °C 37.2 °F /  2.9 °C 30.29in /  1025.6hPa Calm   1.0mph /  1.6km/h 44% 0.00in /  0mm 0.0 W/m2
20:20 59.2 °F /  15.1 °C 37.2 °F /  2.9 °C 30.29in /  1025.6hPa East 0.9mph /  1.4km/h 1.0mph /  1.6km/h 44% 0.00in /  0mm 0.0 W/m2
20:26 59.0 °F /  15 °C 37.0 °F /  2.8 °C 30.29in /  1025.6hPa Calm     44% 0.00in /  0mm 0.0 W/m2
20:32 58.8 °F /  14.9 °C 37.6 °F /  3.1 °C 30.29in /  1025.6hPa Calm   1.0mph /  1.6km/h 45% 0.00in /  0mm 0.0 W/m2
20:40 58.8 °F /  14.9 °C 37.6 °F /  3.1 °C 30.29in /  1025.6hPa Calm   1.0mph /  1.6km/h 45% 0.00in /  0mm 0.0 W/m2
20:46 58.8 °F /  14.9 °C 37.6 °F /  3.1 °C 30.29in /  1025.6hPa ENE 0.9mph /  1.4km/h 1.0mph /  1.6km/h 45% 0.00in /  0mm 0.0 W/m2
20:52 58.8 °F /  14.9 °C 37.6 °F /  3.1 °C 30.29in /  1025.6hPa Calm     45% 0.00in /  0mm 0.0 W/m2
20:58 58.6 °F /  14.8 °C 37.4 °F /  3 °C 30.29in /  1025.6hPa Calm   1.0mph /  1.6km/h 45% 0.00in /  0mm 0.0 W/m2
21:05 58.8 °F /  14.9 °C 37.6 °F /  3.1 °C 30.29in /  1025.6hPa NNE 0.9mph /  1.4km/h 1.0mph /  1.6km/h 45% 0.00in /  0mm 0.0 W/m2
21:11 58.8 °F /  14.9 °C 37.6 °F /  3.1 °C 30.29in /  1025.6hPa Calm     45% 0.00in /  0mm 0.0 W/m2
21:17 58.8 °F /  14.9 °C 37.6 °F /  3.1 °C 30.29in /  1025.6hPa Calm   1.0mph /  1.6km/h 45% 0.00in /  0mm 0.0 W/m2
21:23 58.8 °F /  14.9 °C 37.6 °F /  3.1 °C 30.29in /  1025.6hPa Calm   1.0mph /  1.6km/h 45% 0.00in /  0mm 0.0 W/m2
21:29 58.8 °F /  14.9 °C 37.6 °F /  3.1 °C 30.29in /  1025.6hPa Calm     45% 0.00in /  0mm 0.0 W/m2
21:35 59.0 °F /  15 °C 37.8 °F /  3.2 °C 30.29in /  1025.6hPa Calm   1.0mph /  1.6km/h 45% 0.00in /  0mm 0.0 W/m2
21:41 59.0 °F /  15 °C 37.8 °F /  3.2 °C 30.29in /  1025.6hPa Calm   2.0mph /  3.2km/h 45% 0.00in /  0mm 0.0 W/m2
21:47 58.8 °F /  14.9 °C 37.6 °F /  3.1 °C 30.29in /  1025.6hPa Calm   1.0mph /  1.6km/h 45% 0.00in /  0mm 0.0 W/m2
21:53 58.8 °F /  14.9 °C 37.6 °F /  3.1 °C 30.29in /  1025.6hPa Calm   1.0mph /  1.6km/h 45% 0.00in /  0mm 0.0 W/m2
22:00 58.8 °F /  14.9 °C 38.1 °F /  3.4 °C 30.29in /  1025.6hPa Calm   1.0mph /  1.6km/h 46% 0.00in /  0mm 0.0 W/m2
22:06 58.8 °F /  14.9 °C 38.1 °F /  3.4 °C 30.29in /  1025.6hPa Calm   2.0mph /  3.2km/h 46% 0.00in /  0mm 0.0 W/m2
22:12 58.6 °F /  14.8 °C 37.9 °F /  3.3 °C 30.29in /  1025.6hPa Calm     46% 0.00in /  0mm 0.0 W/m2
22:18 58.6 °F /  14.8 °C 37.9 °F /  3.3 °C 30.29in /  1025.6hPa NE 2.0mph /  3.2km/h 2.0mph /  3.2km/h 46% 0.00in /  0mm 0.0 W/m2
22:24 58.8 °F /  14.9 °C 38.1 °F /  3.4 °C 30.29in /  1025.6hPa Calm   2.0mph /  3.2km/h 46% 0.00in /  0mm 0.0 W/m2
22:30 59.0 °F /  15 °C 38.3 °F /  3.5 °C 30.29in /  1025.6hPa Calm   1.0mph /  1.6km/h 46% 0.00in /  0mm 0.0 W/m2
22:39 58.8 °F /  14.9 °C 38.1 °F /  3.4 °C 30.29in /  1025.6hPa Calm     46% 0.00in /  0mm 0.0 W/m2
22:45 58.8 °F /  14.9 °C 38.1 °F /  3.4 °C 30.29in /  1025.6hPa Calm   1.0mph /  1.6km/h 46% 0.00in /  0mm 0.0 W/m2
22:51 58.8 °F /  14.9 °C 38.1 °F /  3.4 °C 30.29in /  1025.6hPa Calm   1.0mph /  1.6km/h 46% 0.00in /  0mm 0.0 W/m2
22:57 59.0 °F /  15 °C 38.3 °F /  3.5 °C 30.29in /  1025.6hPa Calm   1.0mph /  1.6km/h 46% 0.00in /  0mm 0.0 W/m2
23:03 59.2 °F /  15.1 °C 38.5 °F /  3.6 °C 30.29in /  1025.6hPa Calm   2.0mph /  3.2km/h 46% 0.00in /  0mm 0.0 W/m2
23:09 59.2 °F /  15.1 °C 38.5 °F /  3.6 °C 30.29in /  1025.6hPa Calm   2.0mph /  3.2km/h 46% 0.00in /  0mm 0.0 W/m2
23:15 59.2 °F /  15.1 °C 37.9 °F /  3.3 °C 30.29in /  1025.6hPa Calm   1.0mph /  1.6km/h 45% 0.00in /  0mm 0.0 W/m2
23:21 59.2 °F /  15.1 °C 37.9 °F /  3.3 °C 30.29in /  1025.6hPa Calm   1.0mph /  1.6km/h 45% 0.00in /  0mm 0.0 W/m2
23:27 59.2 °F /  15.1 °C 38.5 °F /  3.6 °C 30.29in /  1025.6hPa Calm     46% 0.00in /  0mm 0.0 W/m2
23:33 59.0 °F /  15 °C 38.3 °F /  3.5 °C 30.29in /  1025.6hPa Calm   1.0mph /  1.6km/h 46% 0.00in /  0mm 0.0 W/m2
23:39 58.8 °F /  14.9 °C 38.1 °F /  3.4 °C 30.28in /  1025.3hPa Calm     46% 0.00in /  0mm 0.0 W/m2
23:45 58.6 °F /  14.8 °C 37.9 °F /  3.3 °C 30.28in /  1025.3hPa Calm     46% 0.00in /  0mm 0.0 W/m2
23:52 58.5 °F /  14.7 °C 38.3 °F /  3.5 °C 30.28in /  1025.3hPa Calm     47% 0.00in /  0mm 0.0 W/m2
23:58 58.3 °F /  14.6 °C 38.1 °F /  3.4 °C 30.28in /  1025.3hPa Calm     47% 0.00in /  0mm 0.0 W/m2
Olympia, Windhoek, Namibia
Compliments of Weather Underground - 3 mb